sensor_id;sensor_type;location;lat;lon;timestamp;pressure;altitude;pressure_sealevel;temperature;humidity
17209;BME280;8720;48.488;9.202;2022-08-19T00:01:27;96627.28;;;24.10;61.34
17209;BME280;8720;48.488;9.202;2022-08-19T00:03:56;96638.66;;;24.12;61.51
17209;BME280;8720;48.488;9.202;2022-08-19T00:06:26;96632.47;;;24.12;61.49
17209;BME280;8720;48.488;9.202;2022-08-19T00:08:54;96627.38;;;24.09;61.24
17209;BME280;8720;48.488;9.202;2022-08-19T00:11:22;96623.97;;;24.07;61.59
17209;BME280;8720;48.488;9.202;2022-08-19T00:13:51;96628.97;;;24.11;61.43
17209;BME280;8720;48.488;9.202;2022-08-19T00:16:19;96614.88;;;24.09;61.32
17209;BME280;8720;48.488;9.202;2022-08-19T00:18:47;96615.44;;;24.13;61.77
17209;BME280;8720;48.488;9.202;2022-08-19T00:21:15;96607.44;;;24.13;61.83
17209;BME280;8720;48.488;9.202;2022-08-19T00:23:43;96609.25;;;24.12;61.40
17209;BME280;8720;48.488;9.202;2022-08-19T00:26:11;96600.41;;;24.12;61.84
17209;BME280;8720;48.488;9.202;2022-08-19T00:28:38;96599.69;;;24.10;61.84
17209;BME280;8720;48.488;9.202;2022-08-19T00:31:08;96592.63;;;24.09;61.61
17209;BME280;8720;48.488;9.202;2022-08-19T00:33:36;96607.00;;;24.08;61.49
17209;BME280;8720;48.488;9.202;2022-08-19T00:36:07;96607.00;;;24.08;61.85
17209;BME280;8720;48.488;9.202;2022-08-19T00:38:37;96611.34;;;24.09;61.85
17209;BME280;8720;48.488;9.202;2022-08-19T00:41:09;96615.00;;;24.08;61.99
17209;BME280;8720;48.488;9.202;2022-08-19T00:43:37;96623.03;;;24.08;61.59
17209;BME280;8720;48.488;9.202;2022-08-19T00:46:08;96624.84;;;24.07;62.01
17209;BME280;8720;48.488;9.202;2022-08-19T00:48:35;96625.94;;;24.05;61.73
17209;BME280;8720;48.488;9.202;2022-08-19T00:51:05;96614.75;;;24.00;61.96
17209;BME280;8720;48.488;9.202;2022-08-19T00:53:33;96626.22;;;24.02;61.58
17209;BME280;8720;48.488;9.202;2022-08-19T00:56:02;96623.75;;;23.99;61.74
17209;BME280;8720;48.488;9.202;2022-08-19T00:58:35;96620.25;;;23.98;61.61
17209;BME280;8720;48.488;9.202;2022-08-19T01:01:04;96624.72;;;23.98;61.87
17209;BME280;8720;48.488;9.202;2022-08-19T01:03:33;96614.91;;;23.98;61.98
17209;BME280;8720;48.488;9.202;2022-08-19T01:06:00;96614.91;;;23.98;61.75
17209;BME280;8720;48.488;9.202;2022-08-19T01:08:28;96609.56;;;23.98;62.09
17209;BME280;8720;48.488;9.202;2022-08-19T01:10:58;96603.63;;;23.95;62.22
17209;BME280;8720;48.488;9.202;2022-08-19T01:13:30;96608.69;;;23.98;62.43
17209;BME280;8720;48.488;9.202;2022-08-19T01:16:04;96606.03;;;23.98;62.24
17209;BME280;8720;48.488;9.202;2022-08-19T01:18:39;96601.66;;;23.97;61.96
17209;BME280;8720;48.488;9.202;2022-08-19T01:21:15;96603.47;;;23.96;62.32
17209;BME280;8720;48.488;9.202;2022-08-19T01:23:47;96598.38;;;23.93;61.97
17209;BME280;8720;48.488;9.202;2022-08-19T01:26:18;96599.22;;;23.94;62.08
17209;BME280;8720;48.488;9.202;2022-08-19T01:28:49;96603.84;;;23.92;62.24
17209;BME280;8720;48.488;9.202;2022-08-19T01:31:21;96598.66;;;23.90;62.16
17209;BME280;8720;48.488;9.202;2022-08-19T01:33:50;96600.97;;;23.84;62.15
17209;BME280;8720;48.488;9.202;2022-08-19T01:36:30;96602.41;;;23.88;62.31
17209;BME280;8720;48.488;9.202;2022-08-19T01:39:01;96598.88;;;23.87;62.03
17209;BME280;8720;48.488;9.202;2022-08-19T01:41:30;96598.06;;;23.87;62.06
17209;BME280;8720;48.488;9.202;2022-08-19T01:43:57;96602.56;;;23.86;61.96
17209;BME280;8720;48.488;9.202;2022-08-19T01:46:25;96606.31;;;23.84;61.94
17209;BME280;8720;48.488;9.202;2022-08-19T01:48:52;96603.06;;;23.80;62.14
17209;BME280;8720;48.488;9.202;2022-08-19T01:51:19;96602.19;;;23.80;61.99
17209;BME280;8720;48.488;9.202;2022-08-19T01:53:48;96605.88;;;23.79;62.17
17209;BME280;8720;48.488;9.202;2022-08-19T01:56:18;96604.28;;;23.76;61.83
17209;BME280;8720;48.488;9.202;2022-08-19T01:58:50;96596.41;;;23.75;62.33
17209;BME280;8720;48.488;9.202;2022-08-19T02:03:54;96593.00;;;23.73;61.94
17209;BME280;8720;48.488;9.202;2022-08-19T02:06:21;96592.16;;;23.72;61.98
17209;BME280;8720;48.488;9.202;2022-08-19T02:08:48;96592.16;;;23.72;62.62
17209;BME280;8720;48.488;9.202;2022-08-19T02:11:24;96601.16;;;23.71;62.53
17209;BME280;8720;48.488;9.202;2022-08-19T02:13:53;96609.16;;;23.71;62.27
17209;BME280;8720;48.488;9.202;2022-08-19T02:16:21;96608.31;;;23.71;62.35
17209;BME280;8720;48.488;9.202;2022-08-19T02:18:48;96601.28;;;23.70;62.17
17209;BME280;8720;48.488;9.202;2022-08-19T02:21:17;96602.13;;;23.70;62.15
17209;BME280;8720;48.488;9.202;2022-08-19T02:23:45;96596.06;;;23.68;62.51
17209;BME280;8720;48.488;9.202;2022-08-19T02:26:14;96594.22;;;23.69;62.39
17209;BME280;8720;48.488;9.202;2022-08-19T02:28:43;96584.78;;;23.65;62.36
17209;BME280;8720;48.488;9.202;2022-08-19T02:31:11;96588.16;;;23.67;62.29
17209;BME280;8720;48.488;9.202;2022-08-19T02:33:40;96589.97;;;23.66;62.62
17209;BME280;8720;48.488;9.202;2022-08-19T02:36:10;96575.66;;;23.67;62.62
17209;BME280;8720;48.488;9.202;2022-08-19T02:38:38;96580.16;;;23.67;62.63
17209;BME280;8720;48.488;9.202;2022-08-19T02:41:12;96574.81;;;23.67;62.72
17209;BME280;8720;48.488;9.202;2022-08-19T02:43:40;96572.13;;;23.67;62.52
17209;BME280;8720;48.488;9.202;2022-08-19T02:46:21;96566.06;;;23.65;62.34
17209;BME280;8720;48.488;9.202;2022-08-19T02:48:51;96569.75;;;23.64;62.45
17209;BME280;8720;48.488;9.202;2022-08-19T02:51:23;96576.91;;;23.63;62.29
17209;BME280;8720;48.488;9.202;2022-08-19T02:53:51;96575.09;;;23.64;62.53
17209;BME280;8720;48.488;9.202;2022-08-19T02:56:19;96582.09;;;23.65;62.44
17209;BME280;8720;48.488;9.202;2022-08-19T02:58:47;96597.28;;;23.64;62.51
17209;BME280;8720;48.488;9.202;2022-08-19T03:01:24;96593.91;;;23.62;62.55
17209;BME280;8720;48.488;9.202;2022-08-19T03:03:53;96594.41;;;23.56;62.53
17209;BME280;8720;48.488;9.202;2022-08-19T03:06:22;96593.28;;;23.59;62.29
17209;BME280;8720;48.488;9.202;2022-08-19T03:08:51;96595.25;;;23.57;62.82
17209;BME280;8720;48.488;9.202;2022-08-19T03:11:22;96590.44;;;23.51;62.68
17209;BME280;8720;48.488;9.202;2022-08-19T03:13:50;96592.97;;;23.52;63.02
17209;BME280;8720;48.488;9.202;2022-08-19T03:16:21;96589.16;;;23.55;62.74
17209;BME280;8720;48.488;9.202;2022-08-19T03:18:50;96579.47;;;23.54;62.71
17209;BME280;8720;48.488;9.202;2022-08-19T03:21:22;96583.84;;;23.55;62.95
17209;BME280;8720;48.488;9.202;2022-08-19T03:23:53;96591.84;;;23.55;62.73
17209;BME280;8720;48.488;9.202;2022-08-19T03:26:21;96583.97;;;23.53;62.88
17209;BME280;8720;48.488;9.202;2022-08-19T03:28:48;96591.03;;;23.54;62.88
17209;BME280;8720;48.488;9.202;2022-08-19T03:31:18;96591.84;;;23.55;63.19
17209;BME280;8720;48.488;9.202;2022-08-19T03:33:49;96591.03;;;23.54;63.04
17209;BME280;8720;48.488;9.202;2022-08-19T03:36:20;96590.16;;;23.54;62.90
17209;BME280;8720;48.488;9.202;2022-08-19T03:38:51;96582.16;;;23.54;62.80
17209;BME280;8720;48.488;9.202;2022-08-19T03:41:24;96583.84;;;23.55;62.79
17209;BME280;8720;48.488;9.202;2022-08-19T03:43:53;96591.84;;;23.55;62.99
17209;BME280;8720;48.488;9.202;2022-08-19T03:46:27;96591.75;;;23.56;63.02
17209;BME280;8720;48.488;9.202;2022-08-19T03:48:59;96597.19;;;23.55;62.92
17209;BME280;8720;48.488;9.202;2022-08-19T03:51:33;96599.03;;;23.54;62.70
17209;BME280;8720;48.488;9.202;2022-08-19T03:54:05;96605.31;;;23.53;62.81
17209;BME280;8720;48.488;9.202;2022-08-19T03:56:34;96608.00;;;23.53;63.40
17209;BME280;8720;48.488;9.202;2022-08-19T03:59:05;96585.44;;;23.46;63.22
17209;BME280;8720;48.488;9.202;2022-08-19T04:01:32;96601.81;;;23.53;63.35
17209;BME280;8720;48.488;9.202;2022-08-19T04:04:01;96582.91;;;23.44;62.97
17209;BME280;8720;48.488;9.202;2022-08-19T04:06:31;96599.41;;;23.50;62.79
17209;BME280;8720;48.488;9.202;2022-08-19T04:09:00;96600.38;;;23.49;62.97
17209;BME280;8720;48.488;9.202;2022-08-19T04:11:33;96601.34;;;23.48;62.76
17209;BME280;8720;48.488;9.202;2022-08-19T04:14:01;96599.66;;;23.47;62.59
17209;BME280;8720;48.488;9.202;2022-08-19T04:16:29;96604.00;;;23.48;63.05
17209;BME280;8720;48.488;9.202;2022-08-19T04:19:02;96597.94;;;23.45;63.07
17209;BME280;8720;48.488;9.202;2022-08-19T04:21:30;96603.88;;;23.49;63.15
17209;BME280;8720;48.488;9.202;2022-08-19T04:23:57;96590.44;;;23.51;63.42
17209;BME280;8720;48.488;9.202;2022-08-19T04:26:27;96589.56;;;23.50;63.34
17209;BME280;8720;48.488;9.202;2022-08-19T04:29:00;96584.59;;;23.45;63.18
17209;BME280;8720;48.488;9.202;2022-08-19T04:31:31;96592.25;;;23.50;63.12
17209;BME280;8720;48.488;9.202;2022-08-19T04:34:07;96595.16;;;23.47;63.17
17209;BME280;8720;48.488;9.202;2022-08-19T04:36:38;96597.44;;;23.52;63.22
17209;BME280;8720;48.488;9.202;2022-08-19T04:39:12;96588.97;;;23.47;63.22
17209;BME280;8720;48.488;9.202;2022-08-19T04:41:39;96599.13;;;23.53;62.97
17209;BME280;8720;48.488;9.202;2022-08-19T04:44:24;96600.13;;;23.52;63.60
17209;BME280;8720;48.488;9.202;2022-08-19T04:46:52;96600.97;;;23.52;63.29
17209;BME280;8720;48.488;9.202;2022-08-19T04:49:23;96592.97;;;23.52;63.40
17209;BME280;8720;48.488;9.202;2022-08-19T04:51:53;96595.50;;;23.54;63.10
17209;BME280;8720;48.488;9.202;2022-08-19T04:54:23;96608.84;;;23.54;63.12
17209;BME280;8720;48.488;9.202;2022-08-19T04:56:51;96616.88;;;23.54;62.98
17209;BME280;8720;48.488;9.202;2022-08-19T04:59:21;96619.69;;;23.52;62.93
17209;BME280;8720;48.488;9.202;2022-08-19T05:01:49;96634.84;;;23.52;62.89
17209;BME280;8720;48.488;9.202;2022-08-19T05:04:19;96633.97;;;23.51;63.02
17209;BME280;8720;48.488;9.202;2022-08-19T05:06:49;96641.03;;;23.52;62.96
17209;BME280;8720;48.488;9.202;2022-08-19T05:09:16;96640.19;;;23.52;62.86
17209;BME280;8720;48.488;9.202;2022-08-19T05:11:44;96646.25;;;23.54;62.96
17209;BME280;8720;48.488;9.202;2022-08-19T05:14:11;96652.44;;;23.54;62.89
17209;BME280;8720;48.488;9.202;2022-08-19T05:16:40;96666.63;;;23.55;63.07
17209;BME280;8720;48.488;9.202;2022-08-19T05:19:08;96678.03;;;23.57;62.68
17209;BME280;8720;48.488;9.202;2022-08-19T05:21:54;96684.50;;;23.54;63.13
17209;BME280;8720;48.488;9.202;2022-08-19T05:24:39;96681.22;;;23.51;62.61
17209;BME280;8720;48.488;9.202;2022-08-19T05:27:06;96695.28;;;23.53;62.83
17209;BME280;8720;48.488;9.202;2022-08-19T05:29:34;96687.41;;;23.51;62.59
17209;BME280;8720;48.488;9.202;2022-08-19T05:32:05;96687.16;;;23.54;63.08
17209;BME280;8720;48.488;9.202;2022-08-19T05:34:34;96693.34;;;23.55;63.01
17209;BME280;8720;48.488;9.202;2022-08-19T05:37:06;96689.72;;;23.56;63.06
17209;BME280;8720;48.488;9.202;2022-08-19T05:39:36;96688.97;;;23.54;62.96
17209;BME280;8720;48.488;9.202;2022-08-19T05:42:08;96684.09;;;23.59;62.82
17209;BME280;8720;48.488;9.202;2022-08-19T05:44:39;96697.22;;;23.62;63.18
17209;BME280;8720;48.488;9.202;2022-08-19T05:47:10;96687.91;;;23.56;62.94
17209;BME280;8720;48.488;9.202;2022-08-19T05:49:38;96696.25;;;23.63;62.91
17209;BME280;8720;48.488;9.202;2022-08-19T05:52:10;96687.28;;;23.64;63.08
17209;BME280;8720;48.488;9.202;2022-08-19T05:54:39;96678.88;;;23.57;62.90
17209;BME280;8720;48.488;9.202;2022-08-19T05:57:08;96694.06;;;23.68;63.14
17209;BME280;8720;48.488;9.202;2022-08-19T05:59:36;96683.38;;;23.68;63.11
17209;BME280;8720;48.488;9.202;2022-08-19T06:02:05;96688.47;;;23.71;62.44
17209;BME280;8720;48.488;9.202;2022-08-19T06:04:33;96695.50;;;23.72;62.35
17209;BME280;8720;48.488;9.202;2022-08-19T06:07:00;96697.31;;;23.71;62.69
17209;BME280;8720;48.488;9.202;2022-08-19T06:09:29;96700.84;;;23.72;62.55
17209;BME280;8720;48.488;9.202;2022-08-19T06:11:58;96699.75;;;23.74;62.87
17209;BME280;8720;48.488;9.202;2022-08-19T06:14:32;96695.97;;;23.77;62.46
17209;BME280;8720;48.488;9.202;2022-08-19T06:17:01;96695.00;;;23.78;62.57
17209;BME280;8720;48.488;9.202;2022-08-19T06:19:30;96701.91;;;23.80;62.75
17209;BME280;8720;48.488;9.202;2022-08-19T06:21:59;96695.47;;;23.83;62.33
17209;BME280;8720;48.488;9.202;2022-08-19T06:24:29;96696.22;;;23.85;62.74
17209;BME280;8720;48.488;9.202;2022-08-19T06:26:59;96702.28;;;23.87;62.43
17209;BME280;8720;48.488;9.202;2022-08-19T06:29:27;96697.66;;;23.89;62.34
17209;BME280;8720;48.488;9.202;2022-08-19T06:31:59;96690.28;;;23.81;62.53
17209;BME280;8720;48.488;9.202;2022-08-19T06:34:29;96698.38;;;23.91;62.31
17209;BME280;8720;48.488;9.202;2022-08-19T06:36:59;96696.66;;;23.90;62.61
17209;BME280;8720;48.488;9.202;2022-08-19T06:39:31;96702.50;;;23.95;62.30
17209;BME280;8720;48.488;9.202;2022-08-19T06:42:03;96703.22;;;23.97;62.23
17209;BME280;8720;48.488;9.202;2022-08-19T06:44:35;96710.25;;;23.98;62.08
17209;BME280;8720;48.488;9.202;2022-08-19T06:47:06;96709.25;;;23.99;62.54
17209;BME280;8720;48.488;9.202;2022-08-19T06:49:35;96702.97;;;24.00;62.49
17209;BME280;8720;48.488;9.202;2022-08-19T06:52:04;96714.41;;;24.02;62.41
17209;BME280;8720;48.488;9.202;2022-08-19T06:54:33;96716.94;;;24.03;62.28
17209;BME280;8720;48.488;9.202;2022-08-19T06:57:02;96716.81;;;24.05;62.34
17209;BME280;8720;48.488;9.202;2022-08-19T06:59:31;96709.66;;;24.05;62.31
17209;BME280;8720;48.488;9.202;2022-08-19T07:02:04;96713.19;;;24.06;62.24
17209;BME280;8720;48.488;9.202;2022-08-19T07:04:36;96712.19;;;24.07;62.21
17209;BME280;8720;48.488;9.202;2022-08-19T07:07:08;96708.44;;;24.09;62.48
17209;BME280;8720;48.488;9.202;2022-08-19T07:09:42;96712.09;;;24.08;62.26
17209;BME280;8720;48.488;9.202;2022-08-19T07:12:12;96699.56;;;24.09;62.35
17209;BME280;8720;48.488;9.202;2022-08-19T07:14:42;96704.34;;;24.26;61.37
17209;BME280;8720;48.488;9.202;2022-08-19T07:17:12;96711.06;;;24.20;61.84
17209;BME280;8720;48.488;9.202;2022-08-19T07:19:41;96711.31;;;24.17;62.12
17209;BME280;8720;48.488;9.202;2022-08-19T07:22:10;96708.78;;;24.16;62.01
17209;BME280;8720;48.488;9.202;2022-08-19T07:24:39;96707.78;;;24.17;61.93
17209;BME280;8720;48.488;9.202;2022-08-19T07:27:06;96711.47;;;24.16;61.49
17209;BME280;8720;48.488;9.202;2022-08-19T07:29:37;96708.06;;;24.14;61.97
17209;BME280;8720;48.488;9.202;2022-08-19T07:32:05;96709.75;;;24.15;62.05
17209;BME280;8720;48.488;9.202;2022-08-19T07:34:35;96712.28;;;24.16;61.88
17209;BME280;8720;48.488;9.202;2022-08-19T07:37:05;96704.66;;;24.12;61.80
17209;BME280;8720;48.488;9.202;2022-08-19T07:39:35;96723.59;;;24.20;61.89
17209;BME280;8720;48.488;9.202;2022-08-19T07:42:08;96718.13;;;24.21;62.04
17209;BME280;8720;48.488;9.202;2022-08-19T07:44:37;96717.13;;;24.22;61.40
17209;BME280;8720;48.488;9.202;2022-08-19T07:47:05;96709.50;;;24.18;61.96
17209;BME280;8720;48.488;9.202;2022-08-19T07:49:32;96717.00;;;24.24;61.62
17209;BME280;8720;48.488;9.202;2022-08-19T07:52:05;96712.19;;;24.18;62.02
17209;BME280;8720;48.488;9.202;2022-08-19T07:54:35;96712.19;;;24.18;62.02
17209;BME280;8720;48.488;9.202;2022-08-19T07:57:05;96726.13;;;24.21;62.07
17209;BME280;8720;48.488;9.202;2022-08-19T07:59:34;96724.41;;;24.20;61.80
17209;BME280;8720;48.488;9.202;2022-08-19T08:02:05;96714.50;;;24.11;62.11
17209;BME280;8720;48.488;9.202;2022-08-19T08:04:32;96729.03;;;24.18;62.37
17209;BME280;8720;48.488;9.202;2022-08-19T08:07:17;96732.94;;;24.14;61.80
17209;BME280;8720;48.488;9.202;2022-08-19T08:10:05;96738.41;;;24.13;62.42
17209;BME280;8720;48.488;9.202;2022-08-19T08:12:38;96735.88;;;24.11;62.55
17209;BME280;8720;48.488;9.202;2022-08-19T08:15:14;96739.41;;;24.12;62.55
17209;BME280;8720;48.488;9.202;2022-08-19T08:17:45;96733.34;;;24.10;62.37
17209;BME280;8720;48.488;9.202;2022-08-19T08:20:13;96734.19;;;24.10;62.14
17209;BME280;8720;48.488;9.202;2022-08-19T08:22:44;96729.94;;;24.08;62.40
17209;BME280;8720;48.488;9.202;2022-08-19T08:25:29;96735.16;;;24.09;62.36
17209;BME280;8720;48.488;9.202;2022-08-19T08:27:58;96740.50;;;24.09;62.48
17209;BME280;8720;48.488;9.202;2022-08-19T08:30:28;96736.00;;;24.10;62.43
17209;BME280;8720;48.488;9.202;2022-08-19T08:32:56;96732.50;;;24.09;62.26
17209;BME280;8720;48.488;9.202;2022-08-19T08:35:24;96731.63;;;24.09;62.48
17209;BME280;8720;48.488;9.202;2022-08-19T08:37:54;96737.84;;;24.09;62.42
17209;BME280;8720;48.488;9.202;2022-08-19T08:40:28;96732.13;;;24.03;62.01
17209;BME280;8720;48.488;9.202;2022-08-19T08:43:06;96738.34;;;24.03;61.82
17209;BME280;8720;48.488;9.202;2022-08-19T08:45:43;96742.91;;;24.01;62.06
17209;BME280;8720;48.488;9.202;2022-08-19T08:48:20;96738.19;;;23.94;62.22
17209;BME280;8720;48.488;9.202;2022-08-19T08:50:52;96749.75;;;23.94;62.59
17209;BME280;8720;48.488;9.202;2022-08-19T08:53:22;96746.47;;;23.91;62.24
17209;BME280;8720;48.488;9.202;2022-08-19T08:55:51;96748.53;;;23.87;62.52
17209;BME280;8720;48.488;9.202;2022-08-19T08:58:27;96741.75;;;23.83;62.79
17209;BME280;8720;48.488;9.202;2022-08-19T09:00:56;96751.00;;;23.79;62.84
17209;BME280;8720;48.488;9.202;2022-08-19T09:03:27;96741.88;;;23.71;62.74
17209;BME280;8720;48.488;9.202;2022-08-19T09:06:00;96748.69;;;23.75;62.75
17209;BME280;8720;48.488;9.202;2022-08-19T09:08:40;96754.28;;;23.72;63.05
17209;BME280;8720;48.488;9.202;2022-08-19T09:11:19;96751.72;;;23.70;62.94
17209;BME280;8720;48.488;9.202;2022-08-19T09:16:44;96757.44;;;23.66;62.83
17209;BME280;8720;48.488;9.202;2022-08-19T09:19:12;96753.06;;;23.65;63.28
17209;BME280;8720;48.488;9.202;2022-08-19T09:21:39;96755.00;;;23.63;63.08
17209;BME280;8720;48.488;9.202;2022-08-19T09:24:06;96756.84;;;23.62;62.99
17209;BME280;8720;48.488;9.202;2022-08-19T09:26:34;96761.47;;;23.60;63.38
17209;BME280;8720;48.488;9.202;2022-08-19T09:29:02;96760.00;;;23.56;62.99
17209;BME280;8720;48.488;9.202;2022-08-19T09:31:32;96768.97;;;23.55;63.24
17209;BME280;8720;48.488;9.202;2022-08-19T09:33:59;96764.63;;;23.54;63.22
17209;BME280;8720;48.488;9.202;2022-08-19T09:36:31;96774.44;;;23.54;63.31
17209;BME280;8720;48.488;9.202;2022-08-19T09:39:03;96763.88;;;23.52;63.65
17209;BME280;8720;48.488;9.202;2022-08-19T09:41:31;96769.22;;;23.52;63.52
17209;BME280;8720;48.488;9.202;2022-08-19T09:43:58;96766.44;;;23.54;63.57
17209;BME280;8720;48.488;9.202;2022-08-19T09:46:29;96759.38;;;23.53;63.69
17209;BME280;8720;48.488;9.202;2022-08-19T09:48:59;96768.25;;;23.53;63.74
17209;BME280;8720;48.488;9.202;2022-08-19T09:51:27;96771.03;;;23.52;63.63
17209;BME280;8720;48.488;9.202;2022-08-19T09:54:00;96767.50;;;23.51;63.75
17209;BME280;8720;48.488;9.202;2022-08-19T09:56:29;96775.53;;;23.51;63.53
17209;BME280;8720;48.488;9.202;2022-08-19T09:58:58;96780.03;;;23.51;63.86
17209;BME280;8720;48.488;9.202;2022-08-19T10:01:30;96773.47;;;23.55;64.04
17209;BME280;8720;48.488;9.202;2022-08-19T10:03:59;96778.56;;;23.58;63.88
17209;BME280;8720;48.488;9.202;2022-08-19T10:06:29;96780.16;;;23.60;63.49
17209;BME280;8720;48.488;9.202;2022-08-19T10:08:58;96786.22;;;23.62;64.05
17209;BME280;8720;48.488;9.202;2022-08-19T10:11:26;96779.78;;;23.65;63.77
17209;BME280;8720;48.488;9.202;2022-08-19T10:13:54;96779.78;;;23.65;64.08
17209;BME280;8720;48.488;9.202;2022-08-19T10:16:23;96789.38;;;23.67;63.84
17209;BME280;8720;48.488;9.202;2022-08-19T10:18:54;96784.75;;;23.69;63.91
17209;BME280;8720;48.488;9.202;2022-08-19T10:21:25;96782.94;;;23.70;63.69
17209;BME280;8720;48.488;9.202;2022-08-19T10:23:57;96781.00;;;23.72;64.06
17209;BME280;8720;48.488;9.202;2022-08-19T10:26:27;96772.00;;;23.73;64.09
17209;BME280;8720;48.488;9.202;2022-08-19T10:28:56;96781.59;;;23.75;63.89
17209;BME280;8720;48.488;9.202;2022-08-19T10:31:28;96781.47;;;23.77;63.75
17209;BME280;8720;48.488;9.202;2022-08-19T10:33:59;96783.28;;;23.76;63.81
17209;BME280;8720;48.488;9.202;2022-08-19T10:36:29;96778.81;;;23.77;63.83
17209;BME280;8720;48.488;9.202;2022-08-19T10:39:00;96788.63;;;23.76;63.55
17209;BME280;8720;48.488;9.202;2022-08-19T10:41:32;96777.09;;;23.76;63.94
17209;BME280;8720;48.488;9.202;2022-08-19T10:44:04;96779.06;;;23.74;63.76
17209;BME280;8720;48.488;9.202;2022-08-19T10:46:35;96778.34;;;23.72;63.73
17209;BME280;8720;48.488;9.202;2022-08-19T10:49:05;96775.03;;;23.68;63.70
17209;BME280;8720;48.488;9.202;2022-08-19T10:51:32;96792.28;;;23.64;64.14
17209;BME280;8720;48.488;9.202;2022-08-19T10:54:18;96794.81;;;23.55;64.09
17209;BME280;8720;48.488;9.202;2022-08-19T10:56:45;96785.38;;;23.51;64.02
17209;BME280;8720;48.488;9.202;2022-08-19T10:59:20;96778.31;;;23.50;64.73
17209;BME280;8720;48.488;9.202;2022-08-19T11:01:48;96770.56;;;23.47;64.37
17209;BME280;8720;48.488;9.202;2022-08-19T11:04:19;96779.78;;;23.54;64.42
17209;BME280;8720;48.488;9.202;2022-08-19T11:06:49;96776.63;;;23.60;64.36
17209;BME280;8720;48.488;9.202;2022-08-19T11:09:22;96774.81;;;23.60;64.23
17209;BME280;8720;48.488;9.202;2022-08-19T11:11:51;96777.34;;;23.62;64.56
17209;BME280;8720;48.488;9.202;2022-08-19T11:14:20;96785.38;;;23.62;64.38
17209;BME280;8720;48.488;9.202;2022-08-19T11:16:49;96781.00;;;23.61;64.28
17209;BME280;8720;48.488;9.202;2022-08-19T11:19:19;96775.66;;;23.61;64.37
17209;BME280;8720;48.488;9.202;2022-08-19T11:21:48;96772.25;;;23.59;64.21
17209;BME280;8720;48.488;9.202;2022-08-19T11:24:19;96783.91;;;23.58;64.75
17209;BME280;8720;48.488;9.202;2022-08-19T11:26:49;96779.31;;;23.60;64.28
17209;BME280;8720;48.488;9.202;2022-08-19T11:29:20;96776.38;;;23.63;64.64
17209;BME280;8720;48.488;9.202;2022-08-19T11:31:51;96778.81;;;23.66;64.73
17209;BME280;8720;48.488;9.202;2022-08-19T11:34:24;96783.03;;;23.68;64.50
17209;BME280;8720;48.488;9.202;2022-08-19T11:36:54;96783.19;;;23.67;64.57
17209;BME280;8720;48.488;9.202;2022-08-19T11:39:26;96782.22;;;23.68;64.43
17209;BME280;8720;48.488;9.202;2022-08-19T11:41:54;96790.97;;;23.70;64.65
17209;BME280;8720;48.488;9.202;2022-08-19T11:44:22;96781.84;;;23.72;64.69
17209;BME280;8720;48.488;9.202;2022-08-19T11:46:49;96783.56;;;23.73;64.70
17209;BME280;8720;48.488;9.202;2022-08-19T11:49:20;96775.41;;;23.75;65.09
17209;BME280;8720;48.488;9.202;2022-08-19T11:51:48;96778.94;;;23.75;64.47
17209;BME280;8720;48.488;9.202;2022-08-19T11:54:17;96772.72;;;23.75;64.67
17209;BME280;8720;48.488;9.202;2022-08-19T11:56:45;96772.84;;;23.73;64.93
17209;BME280;8720;48.488;9.202;2022-08-19T11:59:15;96790.72;;;23.73;64.89
17209;BME280;8720;48.488;9.202;2022-08-19T12:01:42;96784.41;;;23.74;65.33
17209;BME280;8720;48.488;9.202;2022-08-19T12:04:10;96781.84;;;23.72;65.08
17209;BME280;8720;48.488;9.202;2022-08-19T12:06:40;96781.34;;;23.78;64.91
17209;BME280;8720;48.488;9.202;2022-08-19T12:09:09;96787.53;;;23.79;64.93
17209;BME280;8720;48.488;9.202;2022-08-19T12:11:37;96784.75;;;23.80;64.61
17209;BME280;8720;48.488;9.202;2022-08-19T12:14:10;96779.53;;;23.79;65.02
17209;BME280;8720;48.488;9.202;2022-08-19T12:16:37;96776.50;;;23.83;64.70
17209;BME280;8720;48.488;9.202;2022-08-19T12:19:05;96780.97;;;23.83;65.04
17209;BME280;8720;48.488;9.202;2022-08-19T12:21:35;96776.50;;;23.83;65.08
17209;BME280;8720;48.488;9.202;2022-08-19T12:24:05;96765.56;;;23.75;64.80
17209;BME280;8720;48.488;9.202;2022-08-19T12:26:33;96777.59;;;23.81;64.94
17209;BME280;8720;48.488;9.202;2022-08-19T12:29:00;96771.38;;;23.80;64.78
17209;BME280;8720;48.488;9.202;2022-08-19T12:31:29;96779.16;;;23.83;65.30
17209;BME280;8720;48.488;9.202;2022-08-19T12:33:56;96771.03;;;23.85;65.24
17209;BME280;8720;48.488;9.202;2022-08-19T12:36:24;96774.28;;;23.88;64.84
17209;BME280;8720;48.488;9.202;2022-08-19T12:38:52;96775.16;;;23.89;64.99
17209;BME280;8720;48.488;9.202;2022-08-19T12:41:21;96750.13;;;23.79;64.87
17209;BME280;8720;48.488;9.202;2022-08-19T12:43:49;96732.06;;;23.71;64.98
17209;BME280;8720;48.488;9.202;2022-08-19T12:46:18;96771.63;;;23.88;65.09
17209;BME280;8720;48.488;9.202;2022-08-19T12:48:46;96764.19;;;23.92;65.08
17209;BME280;8720;48.488;9.202;2022-08-19T12:51:17;96765.66;;;23.96;65.01
17209;BME280;8720;48.488;9.202;2022-08-19T12:53:46;96771.72;;;23.98;64.63
17209;BME280;8720;48.488;9.202;2022-08-19T12:56:13;96770.03;;;23.97;64.53
17209;BME280;8720;48.488;9.202;2022-08-19T12:58:42;96769.06;;;23.98;64.79
17209;BME280;8720;48.488;9.202;2022-08-19T13:01:14;96774.13;;;24.01;64.61
17209;BME280;8720;48.488;9.202;2022-08-19T13:03:44;96774.78;;;24.04;64.46
17209;BME280;8720;48.488;9.202;2022-08-19T13:06:11;96788.75;;;24.08;64.74
17209;BME280;8720;48.488;9.202;2022-08-19T13:08:40;96784.84;;;24.12;64.92
17209;BME280;8720;48.488;9.202;2022-08-19T13:11:11;96781.06;;;24.14;65.00
17209;BME280;8720;48.488;9.202;2022-08-19T13:13:45;96778.41;;;24.14;64.72
17209;BME280;8720;48.488;9.202;2022-08-19T13:16:14;96784.84;;;24.12;64.46
17209;BME280;8720;48.488;9.202;2022-08-19T13:18:44;96785.81;;;24.11;64.73
17209;BME280;8720;48.488;9.202;2022-08-19T13:21:14;96791.16;;;24.11;64.52
17209;BME280;8720;48.488;9.202;2022-08-19T13:23:42;96791.28;;;24.09;64.87
17209;BME280;8720;48.488;9.202;2022-08-19T13:26:11;96793.00;;;24.10;64.41
17209;BME280;8720;48.488;9.202;2022-08-19T13:28:42;96804.53;;;24.11;64.49
17209;BME280;8720;48.488;9.202;2022-08-19T13:31:30;96800.91;;;24.12;64.46